Time;durP1;ratioP1;P1;durP2;ratioP2;P2;SDS_P1;SDS_P2;PMS_P1;PMS_P2;Temp;Humidity;BMP_temperature;BMP_pressure;BME280_temperature;BME280_humidity;BME280_pressure;Samples;Min_cycle;Max_cycle;Signal;HPM_P1;HPM_P2
2023/09/05 00:01:52;;;;;;;0.00;0.00;;;;;;;21.60;nan;100846.06;5002693;28;20473;-80
2023/09/05 00:04:18;;;;;;;0.10;0.10;;;;;;;;;;5022996;28;20036;-81
2023/09/05 00:06:43;;;;;;;0.10;0.10;;;;;;;;;;5025775;28;20048;-80
2023/09/05 00:09:08;;;;;;;0.10;0.10;;;;;;;;;;5023417;28;20647;-81
2023/09/05 00:11:34;;;;;;;0.10;0.10;;;;;;;;;;5020155;28;20017;-80
2023/09/05 00:14:00;;;;;;;0.10;0.10;;;;;;;21.36;nan;100859.19;5009117;28;20540;-81
2023/09/05 00:16:28;;;;;;;0.10;0.10;;;;;;;21.21;nan;100859.50;5025324;28;20392;-80
2023/09/05 00:18:54;;;;;;;0.10;0.10;;;;;;;;;;5007534;28;20033;-80
2023/09/05 00:21:20;;;;;;;0.10;0.10;;;;;;;20.89;nan;100855.88;5026170;28;20037;-81
2023/09/05 00:23:46;;;;;;;0.10;0.10;;;;;;;;;;5026913;28;20025;-80
2023/09/05 00:26:11;;;;;;;0.10;0.10;;;;;;;;;;5021377;28;20028;-80
2023/09/05 00:28:36;;;;;;;0.10;0.10;;;;;;;;;;5019714;28;20026;-80
2023/09/05 00:31:01;;;;;;;0.10;0.10;;;;;;;;;;5025588;28;20861;-80
2023/09/05 00:33:31;;;;;;;0.10;0.10;;;;;;;20.23;nan;100948.09;5023296;28;20033;-80
2023/09/05 00:35:56;;;;;;;0.10;0.10;;;;;;;20.19;nan;100876.19;5012822;28;20028;-80
2023/09/05 00:38:25;;;;;;;0.10;0.10;;;;;;;20.12;nan;100847.50;5031103;28;20144;-80
2023/09/05 00:40:50;;;;;;;0.10;0.10;;;;;;;;;;5029325;28;20029;-80
2023/09/05 00:43:20;;;;;;;0.10;0.10;;;;;;;20.06;nan;100860.91;5009850;28;20040;-80
2023/09/05 00:45:53;;;;;;;0.10;0.10;;;;;;;20.02;nan;100882.00;5023600;28;20018;-80
2023/09/05 00:48:23;;;;;;;0.00;0.00;;;;;;;19.87;nan;100892.09;5027589;28;20128;-80
2023/09/05 00:50:49;;;;;;;0.10;0.10;;;;;;;;;;5012369;28;20418;-80
2023/09/05 00:53:14;;;;;;;0.10;0.10;;;;;;;19.69;nan;100892.69;5029914;28;20064;-80
2023/09/05 00:55:39;;;;;;;0.10;0.10;;;;;;;19.52;nan;100868.03;5009733;28;20048;-80
2023/09/05 00:58:04;;;;;;;0.10;0.10;;;;;;;;;;5011011;28;20080;-80
2023/09/05 01:00:30;;;;;;;0.10;0.10;;;;;;;19.29;nan;100887.97;5006297;28;20022;-80
2023/09/05 01:02:55;;;;;;;0.10;0.10;;;;;;;;;;5029463;28;20118;-80
2023/09/05 01:05:27;;;;;;;0.10;0.10;;;;;;;;;;5029819;28;20280;-80
2023/09/05 01:08:03;;;;;;;0.10;0.10;;;;;;;19.12;nan;100875.94;5012484;28;20039;-80
2023/09/05 01:10:46;;;;;;;0.10;0.10;;;;;;;;;;5029573;28;20631;-80
2023/09/05 01:13:12;;;;;;;0.10;0.10;;;;;;;;;;5011266;28;20496;-80
2023/09/05 01:15:37;;;;;;;0.10;0.10;;;;;;;18.96;nan;100854.84;5029464;28;20072;-80
2023/09/05 01:18:03;;;;;;;0.10;0.10;;;;;;;;;;5024541;28;20029;-80
2023/09/05 01:21:00;;;;;;;0.10;0.10;;;;;;;18.77;nan;100881.31;5012101;28;20298;-81
2023/09/05 01:23:30;;;;;;;0.10;0.10;;;;;;;;;;5028499;28;20033;-80
2023/09/05 01:25:56;;;;;;;0.10;0.10;;;;;;;18.52;nan;100897.00;5027334;28;20033;-80
2023/09/05 01:28:23;;;;;;;0.10;0.10;;;;;;;18.39;nan;100998.63;5007500;28;20032;-80
2023/09/05 01:30:49;;;;;;;0.10;0.10;;;;;;;18.31;nan;100879.13;5029327;28;20030;-80
2023/09/05 01:33:15;;;;;;;0.10;0.10;;;;;;;18.23;nan;100849.81;5002872;28;20032;-80
2023/09/05 01:35:41;;;;;;;0.10;0.10;;;;;;;;;;5028547;28;20041;-80
2023/09/05 01:38:06;;;;;;;0.10;0.10;;;;;;;18.07;nan;100935.72;5028618;28;20053;-80
2023/09/05 01:40:32;;;;;;;0.10;0.10;;;;;;;;;;5026711;28;20030;-80
2023/09/05 01:42:57;;;;;;;0.10;0.10;;;;;;;;;;5004859;28;20117;-80
2023/09/05 01:45:22;;;;;;;0.10;0.10;;;;;;;;;;5020137;28;20056;-80
2023/09/05 01:47:47;;;;;;;0.10;0.10;;;;;;;17.86;nan;100934.69;5025452;28;20080;-80
2023/09/05 01:50:12;;;;;;;0.10;0.10;;;;;;;;;;5009729;28;20152;-80
2023/09/05 01:52:37;;;;;;;0.10;0.10;;;;;;;17.82;nan;100879.91;5006932;28;20284;-80
2023/09/05 01:55:03;;;;;;;0.10;0.10;;;;;;;;;;5010607;28;20021;-80
2023/09/05 01:57:28;;;;;;;0.10;0.10;;;;;;;;;;5031392;28;20272;-80
2023/09/05 01:59:53;;;;;;;0.10;0.10;;;;;;;;;;5010847;28;20033;-80
2023/09/05 02:02:19;;;;;;;0.10;0.10;;;;;;;;;;5008272;28;20032;-80
2023/09/05 02:04:44;;;;;;;0.10;0.10;;;;;;;;;;5023097;28;20029;-80
2023/09/05 02:07:09;;;;;;;0.10;0.10;;;;;;;;;;5001421;28;20049;-80
2023/09/05 02:09:35;;;;;;;0.10;0.10;;;;;;;17.62;nan;100986.66;5028801;28;20025;-80
2023/09/05 02:12:00;;;;;;;0.10;0.10;;;;;;;;;;5008848;28;20060;-80
2023/09/05 02:14:25;;;;;;;0.10;0.10;;;;;;;;;;5013738;28;20901;-80
2023/09/05 02:16:51;;;;;;;0.10;0.10;;;;;;;;;;5013489;28;20028;-80
2023/09/05 02:19:17;;;;;;;0.10;0.10;;;;;;;17.57;nan;100826.78;5028405;28;20025;-80
2023/09/05 02:21:42;;;;;;;0.10;0.10;;;;;;;;;;5026552;28;20029;-80
2023/09/05 02:24:07;;;;;;;0.10;0.10;;;;;;;17.61;nan;100851.28;5026816;28;20029;-80
2023/09/05 02:26:32;;;;;;;0.10;0.10;;;;;;;;;;5028898;28;20017;-80
2023/09/05 02:28:58;;;;;;;0.10;0.10;;;;;;;;;;5027385;28;20477;-80
2023/09/05 02:31:24;;;;;;;0.10;0.10;;;;;;;;;;5027217;28;20036;-80
2023/09/05 02:33:49;;;;;;;0.10;0.10;;;;;;;17.74;nan;100840.72;5027329;28;20029;-80
2023/09/05 02:36:18;;;;;;;0.10;0.10;;;;;;;17.91;nan;100883.31;5030014;28;20021;-80
2023/09/05 02:38:44;;;;;;;0.10;0.10;;;;;;;17.93;nan;100833.13;5021888;28;20029;-80
2023/09/05 02:41:14;;;;;;;0.10;0.10;;;;;;;17.84;nan;100915.34;5009997;28;20025;-80
2023/09/05 02:43:39;;;;;;;0.10;0.10;;;;;;;17.89;nan;100837.19;5028453;28;20025;-80
2023/09/05 02:46:05;;;;;;;0.10;0.10;;;;;;;17.97;nan;100855.75;5027451;28;20017;-80
2023/09/05 02:48:30;;;;;;;0.10;0.10;;;;;;;;;;5006897;28;20557;-80
2023/09/05 02:51:03;;;;;;;0.10;0.10;;;;;;;17.82;nan;100842.47;5008090;28;20056;-80
2023/09/05 02:53:28;;;;;;;0.10;0.10;;;;;;;17.70;nan;100844.78;5000850;28;20017;-80
2023/09/05 02:55:54;;;;;;;0.10;0.10;;;;;;;17.54;nan;100824.50;4997382;28;20029;-80
2023/09/05 02:58:19;;;;;;;0.10;0.10;;;;;;;;;;5023023;28;20032;-80
2023/09/05 03:00:44;;;;;;;0.10;0.10;;;;;;;;;;5010797;28;20033;-79
2023/09/05 03:03:09;;;;;;;0.10;0.10;;;;;;;17.99;nan;100849.19;5010827;28;20080;-79
2023/09/05 03:05:35;;;;;;;0.10;0.10;;;;;;;;;;5019947;28;20030;-79
2023/09/05 03:08:00;;;;;;;0.10;0.10;;;;;;;18.41;nan;100842.13;5010367;28;20803;-80
2023/09/05 03:10:25;;;;;;;0.10;0.10;;;;;;;;;;5007097;28;20037;-79
2023/09/05 03:12:50;;;;;;;0.10;0.10;;;;;;;18.27;nan;100850.25;5006165;28;20032;-80
2023/09/05 03:15:18;;;;;;;0.10;0.10;;;;;;;;;;5010626;28;20029;-80
2023/09/05 03:17:44;;;;;;;0.10;0.10;;;;;;;18.03;nan;100833.59;5028786;28;20276;-80
2023/09/05 03:20:10;;;;;;;0.10;0.10;;;;;;;;;;5028830;28;20078;-80
2023/09/05 03:22:35;;;;;;;0.10;0.10;;;;;;;17.94;nan;100838.25;5025959;28;20021;-80
2023/09/05 03:25:00;;;;;;;0.10;0.10;;;;;;;;;;5016393;28;20603;-79
2023/09/05 03:27:25;;;;;;;0.10;0.10;;;;;;;;;;5022426;28;20037;-80
2023/09/05 03:29:51;;;;;;;0.10;0.10;;;;;;;;;;5028656;28;20029;-79
2023/09/05 03:32:16;;;;;;;0.10;0.10;;;;;;;17.73;nan;100832.88;5009879;28;20525;-80
2023/09/05 03:34:48;;;;;;;0.10;0.10;;;;;;;17.74;nan;100835.38;5028100;28;20057;-80
2023/09/05 03:37:14;;;;;;;0.10;0.10;;;;;;;;;;5002865;28;20018;-80
2023/09/05 03:39:39;;;;;;;0.10;0.10;;;;;;;;;;5009999;28;20083;-80
2023/09/05 03:42:04;;;;;;;0.10;0.10;;;;;;;17.49;nan;100831.41;5007809;28;20461;-80
2023/09/05 03:44:29;;;;;;;0.10;0.10;;;;;;;;;;5027173;28;20036;-80
2023/09/05 03:46:54;;;;;;;0.10;0.10;;;;;;;17.37;nan;100818.53;5009482;28;20091;-79
2023/09/05 03:49:20;;;;;;;0.10;0.10;;;;;;;;;;5024539;28;20127;-80
2023/09/05 03:51:45;;;;;;;0.10;0.10;;;;;;;;;;5027932;28;20029;-80
2023/09/05 03:54:12;;;;;;;0.20;0.20;;;;;;;;;;5003220;28;20396;-80
2023/09/05 03:56:37;;;;;;;0.10;0.10;;;;;;;;;;5021218;28;20481;-79
2023/09/05 03:59:03;;;;;;;0.10;0.10;;;;;;;17.41;nan;100889.31;5025830;28;20032;-79
2023/09/05 04:01:28;;;;;;;0.10;0.10;;;;;;;;;;5024957;28;20592;-79
2023/09/05 04:03:53;;;;;;;0.10;0.10;;;;;;;;;;5025877;28;20366;-80
2023/09/05 04:06:18;;;;;;;0.10;0.10;;;;;;;17.49;nan;100816.19;5028844;28;20091;-79
2023/09/05 04:08:44;;;;;;;0.10;0.10;;;;;;;;;;5027746;28;20104;-80
2023/09/05 04:11:09;;;;;;;0.10;0.10;;;;;;;;;;5009207;28;20292;-80
2023/09/05 04:13:34;;;;;;;0.10;0.10;;;;;;;;;;5019144;28;20102;-80
2023/09/05 04:16:07;;;;;;;0.10;0.10;;;;;;;18.22;nan;100816.03;5024982;28;20026;-80
2023/09/05 04:18:33;;;;;;;0.10;0.10;;;;;;;;;;5010635;28;20375;-80
2023/09/05 04:20:59;;;;;;;0.10;0.10;;;;;;;18.40;nan;100818.22;5006360;28;20043;-80
2023/09/05 04:23:25;;;;;;;0.10;0.10;;;;;;;18.47;nan;100829.78;5030924;28;20594;-80
2023/09/05 04:26:01;;;;;;;0.10;0.10;;;;;;;;;;5026828;28;20049;-80
2023/09/05 04:28:27;;;;;;;0.10;0.10;;;;;;;;;;5008851;28;20038;-80
2023/09/05 04:30:55;;;;;;;0.10;0.10;;;;;;;18.57;nan;100883.84;5009319;28;20037;-79
2023/09/05 04:33:31;;;;;;;0.10;0.10;;;;;;;18.76;nan;100838.63;5022941;28;20097;-80
2023/09/05 04:35:56;;;;;;;0.10;0.10;;;;;;;18.99;nan;100833.00;5027241;28;20469;-80
2023/09/05 04:38:22;;;;;;;0.10;0.10;;;;;;;19.20;nan;100830.19;5026155;28;20035;-80
2023/09/05 04:40:47;;;;;;;0.10;0.10;;;;;;;;;;5001776;28;20026;-80
2023/09/05 04:43:12;;;;;;;0.10;0.10;;;;;;;;;;5027302;28;20835;-80
2023/09/05 04:45:37;;;;;;;0.10;0.10;;;;;;;;;;5008765;28;20033;-80
2023/09/05 04:48:02;;;;;;;0.10;0.10;;;;;;;;;;5031961;28;20543;-80
2023/09/05 04:50:28;;;;;;;0.10;0.10;;;;;;;;;;5023690;28;20476;-80
2023/09/05 04:52:53;;;;;;;0.10;0.10;;;;;;;;;;5000949;28;20536;-80
2023/09/05 04:55:18;;;;;;;0.10;0.10;;;;;;;;;;5020462;28;20044;-80
2023/09/05 04:57:43;;;;;;;0.10;0.10;;;;;;;;;;5029852;28;20292;-80
2023/09/05 05:00:13;;;;;;;0.10;0.10;;;;;;;19.41;nan;100955.28;5006090;28;20283;-80
2023/09/05 05:02:38;;;;;;;0.10;0.10;;;;;;;;;;5009483;28;20030;-80
2023/09/05 05:05:04;;;;;;;0.10;0.10;;;;;;;19.46;nan;100856.25;5026452;28;20109;-80
2023/09/05 05:07:29;;;;;;;0.10;0.10;;;;;;;;;;5004669;28;20035;-80
2023/09/05 05:09:54;;;;;;;0.10;0.10;;;;;;;19.48;nan;100840.78;5026503;28;20033;-80
2023/09/05 05:12:19;;;;;;;0.10;0.10;;;;;;;;;;5007606;28;20029;-80
2023/09/05 05:14:45;;;;;;;0.10;0.10;;;;;;;19.51;nan;100863.69;5003620;28;20280;-80
2023/09/05 05:17:12;;;;;;;0.10;0.10;;;;;;;;;;5009025;28;20021;-80
2023/09/05 05:19:37;;;;;;;0.10;0.10;;;;;;;;;;5011612;28;20292;-80
2023/09/05 05:22:03;;;;;;;0.10;0.10;;;;;;;19.61;nan;100863.31;5012642;28;20133;-80
2023/09/05 05:24:28;;;;;;;0.10;0.10;;;;;;;19.59;nan;100871.53;5028750;28;20116;-80
2023/09/05 05:26:53;;;;;;;0.10;0.10;;;;;;;;;;5012066;28;20452;-80
2023/09/05 05:29:19;;;;;;;0.10;0.10;;;;;;;;;;5029726;28;20196;-80
2023/09/05 05:31:44;;;;;;;0.10;0.10;;;;;;;19.57;nan;100873.63;5012731;28;20311;-80
2023/09/05 05:34:09;;;;;;;0.10;0.10;;;;;;;;;;5029823;28;20057;-80
2023/09/05 05:36:34;;;;;;;0.10;0.10;;;;;;;19.86;nan;100898.50;5023482;28;20079;-80
2023/09/05 05:39:01;;;;;;;0.10;0.10;;;;;;;20.09;nan;100947.25;5036204;28;20105;-80
2023/09/05 05:41:26;;;;;;;0.10;0.10;;;;;;;;;;5027478;28;20064;-80
2023/09/05 05:43:52;;;;;;;0.10;0.10;;;;;;;20.62;nan;100886.53;5012524;28;20064;-80
2023/09/05 05:46:20;;;;;;;0.10;0.10;;;;;;;20.90;nan;100900.53;5012457;28;20141;-80
2023/09/05 05:48:46;;;;;;;0.10;0.10;;;;;;;21.11;nan;100886.00;5030046;28;20124;-80
2023/09/05 05:51:12;;;;;;;;;;;;;;;21.24;nan;100887.81;5032085;28;20782;-80
2023/09/05 05:53:37;;;;;;;0.10;0.10;;;;;;;;;;5023048;28;19916;-81
2023/09/05 05:56:02;;;;;;;0.10;0.10;;;;;;;21.80;nan;100899.75;5008186;28;20036;-80
2023/09/05 05:58:28;;;;;;;0.10;0.10;;;;;;;22.01;nan;100893.19;5024889;28;20026;-80
2023/09/05 06:00:53;;;;;;;0.10;0.10;;;;;;;22.19;nan;100882.50;5004817;28;20080;-80
2023/09/05 06:03:22;;;;;;;0.00;0.00;;;;;;;;;;5025619;28;20025;-80
2023/09/05 06:05:47;;;;;;;0.10;0.10;;;;;;;;;;5023792;28;20025;-80
2023/09/05 06:08:13;;;;;;;0.00;0.00;;;;;;;;;;5006151;28;20833;-80
2023/09/05 06:10:38;;;;;;;0.00;0.00;;;;;;;;;;5026932;28;20451;-80
2023/09/05 06:13:04;;;;;;;0.00;0.00;;;;;;;23.76;nan;100929.78;4998254;28;20409;-84
2023/09/05 06:15:33;;;;;;;0.00;0.00;;;;;;;24.11;nan;101013.66;5012936;28;20018;-84
2023/09/05 06:17:59;;;;;;;0.00;0.00;;;;;;;;;;5029587;28;20408;-84
2023/09/05 06:20:25;;;;;;;0.00;0.00;;;;;;;24.67;nan;101000.78;5023738;28;20038;-83
2023/09/05 06:22:50;;;;;;;0.00;0.00;;;;;;;;;;5015183;28;20473;-84
2023/09/05 06:25:16;;;;;;;0.00;0.00;;;;;;;25.45;nan;101033.94;5022988;28;20295;-84
2023/09/05 06:27:43;;;;;;;0.00;0.00;;;;;;;25.91;nan;100923.81;5023374;28;20079;-83
2023/09/05 06:30:11;;;;;;;0.00;0.00;;;;;;;;;;5011297;28;20017;-83
2023/09/05 06:32:36;;;;;;;;;;;;;;;26.53;nan;100943.78;5029174;28;20040;-83
2023/09/05 06:35:02;;;;;;;0.00;0.00;;;;;;;;;;5005841;28;19913;-83
2023/09/05 06:37:29;;;;;;;0.00;0.00;;;;;;;;;;4997507;28;20104;-83
2023/09/05 06:39:54;;;;;;;0.00;0.00;;;;;;;;;;5020332;28;20276;-83
2023/09/05 06:42:20;;;;;;;0.00;0.00;;;;;;;;;;4997449;28;20392;-83
2023/09/05 06:44:45;;;;;;;;;;;;;;;27.86;nan;100937.41;5027857;28;20095;-83
2023/09/05 06:47:10;;;;;;;;;;;;;;;27.83;nan;100943.34;5030838;28;19963;-83
2023/09/05 06:49:35;;;;;;;;;;;;;;;28.01;nan;100934.84;5032994;28;19917;-83
2023/09/05 06:52:00;;;;;;;;;;;;;;;28.24;nan;100933.66;5027598;28;19920;-83
2023/09/05 06:54:25;;;;;;;;;;;;;;;28.29;nan;100935.59;5021227;28;19921;-83
2023/09/05 06:56:51;;;;;;;;;;;;;;;28.29;nan;100941.03;5003127;28;19917;-83
2023/09/05 06:59:19;;;;;;;;;;;;;;;28.18;nan;100932.00;5024754;28;20000;-83
2023/09/05 07:01:44;;;;;;;;;;;;;;;28.10;nan;100927.00;5028102;28;19913;-82
2023/09/05 07:04:13;;;;;;;;;;;;;;;28.10;nan;100943.31;5023235;28;19972;-85
2023/09/05 07:06:39;;;;;;;;;;;;;;;28.28;nan;100923.91;5001076;28;19917;-83
2023/09/05 07:09:05;;;;;;;;;;;;;;;28.35;nan;100929.94;5008236;28;19944;-84
2023/09/05 07:11:31;;;;;;;;;;;;;;;28.23;nan;100923.06;5026494;28;19919;-83
2023/09/05 07:13:59;;;;;;;;;;;;;;;28.40;nan;100923.72;5008935;28;19992;-84
2023/09/05 07:16:27;;;;;;;;;;;;;;;28.54;nan;100938.53;5011782;28;19928;-83
2023/09/05 07:18:53;;;;;;;;;;;;;;;28.71;nan;100937.56;5024883;28;19923;-83
2023/09/05 07:21:21;;;;;;;;;;;;;;;28.91;nan;100934.13;5010891;28;20011;-84
2023/09/05 07:23:50;;;;;;;;;;;;;;;29.29;nan;100938.41;5006189;28;20329;-83
2023/09/05 07:26:18;;;;;;;;;;;;;;;29.17;nan;100940.53;5015926;28;20372;-91
2023/09/05 07:28:46;;;;;;;;;;;;;;;29.27;nan;100913.38;5001020;28;19917;-82
2023/09/05 07:31:12;;;;;;;;;;;;;;;29.14;nan;100941.88;5015949;28;19913;-82
2023/09/05 07:33:38;;;;;;;;;;;;;;;29.02;nan;100944.81;5019004;28;19914;-82
2023/09/05 07:36:03;;;;;;;;;;;;;;;29.16;nan;100949.81;4999061;28;19920;-82
2023/09/05 07:38:28;;;;;;;;;;;;;;;29.31;nan;100949.03;5008326;28;19917;-82
2023/09/05 07:41:03;;;;;;;;;;;;;;;29.38;nan;100939.53;5027303;28;19921;-83
2023/09/05 07:43:30;;;;;;;;;;;;;;;29.70;nan;100946.75;5009635;28;19913;-88
2023/09/05 07:45:58;;;;;;;;;;;;;;;29.82;nan;100944.59;5008825;28;19917;-83
2023/09/05 07:48:23;;;;;;;;;;;;;;;29.84;nan;100949.75;5011115;28;19923;-83
2023/09/05 07:50:49;;;;;;;;;;;;;;;29.69;nan;100952.47;5021408;28;19913;-82
2023/09/05 07:53:14;;;;;;;;;;;;;;;29.76;nan;100947.56;5006894;28;19913;-82
2023/09/05 07:55:39;;;;;;;;;;;;;;;30.11;nan;100965.88;5010628;28;19977;-82
2023/09/05 07:58:04;;;;;;;;;;;;;;;30.08;nan;100951.97;5029669;28;19913;-82
2023/09/05 08:00:29;;;;;;;;;;;;;;;30.45;nan;100959.91;5028405;28;20457;-82
2023/09/05 08:02:55;;;;;;;;;;;;;;;30.80;nan;100955.50;5019297;28;19928;-83
2023/09/05 08:05:21;;;;;;;;;;;;;;;31.28;nan;100953.97;5027594;28;19928;-82
2023/09/05 08:07:46;;;;;;;;;;;;;;;31.51;nan;100959.88;5010561;28;19964;-83
2023/09/05 08:10:11;;;;;;;;;;;;;;;31.53;nan;100958.53;5009241;28;19928;-83
2023/09/05 08:12:37;;;;;;;;;;;;;;;31.60;nan;100963.66;5028262;28;20004;-83
2023/09/05 08:15:03;;;;;;;;;;;;;;;31.66;nan;100961.75;5026070;28;20332;-83
2023/09/05 08:17:31;;;;;;;;;;;;;;;31.89;nan;100961.03;5029099;28;19924;-84
2023/09/05 08:19:59;;;;;;;;;;;;;;;32.03;nan;100966.69;5025439;28;19913;-82
2023/09/05 08:22:24;;;;;;;;;;;;;;;32.07;nan;100958.75;5027592;28;20352;-83
2023/09/05 08:24:53;;;;;;;;;;;;;;;32.15;nan;100950.75;5011805;28;19920;-83
2023/09/05 08:27:19;;;;;;;;;;;;;;;32.75;nan;100961.44;5011015;28;20424;-82
2023/09/05 08:29:44;;;;;;;;;;;;;;;33.37;nan;100966.19;5010274;28;19924;-83
2023/09/05 08:32:11;;;;;;;;;;;;;;;33.79;nan;100979.06;5028596;28;20557;-81
2023/09/05 08:34:40;;;;;;;0.00;0.00;;;;;;;;;;5024522;28;19920;-79
2023/09/05 08:37:08;;;;;;;0.00;0.00;;;;;;;;;;5008082;28;20399;-82
2023/09/05 08:39:34;;;;;;;0.00;0.00;;;;;;;;;;5027181;28;20878;-82
2023/09/05 08:42:03;;;;;;;0.00;0.00;;;;;;;;;;5028067;28;20467;-83
2023/09/05 08:44:28;;;;;;;0.00;0.00;;;;;;;;;;5028044;28;20395;-83
2023/09/05 08:46:53;;;;;;;0.00;0.00;;;;;;;;;;5011609;28;20399;-83
2023/09/05 08:49:18;;;;;;;0.00;0.00;;;;;;;;;;5027588;28;20394;-83
2023/09/05 08:51:44;;;;;;;0.00;0.00;;;;;;;;;;5010155;28;21030;-83
2023/09/05 08:54:13;;;;;;;0.00;0.00;;;;;;;;;;5006124;28;20409;-83
2023/09/05 08:56:38;;;;;;;0.00;0.00;;;;;;;;;;5009156;28;20406;-82
2023/09/05 08:59:05;;;;;;;0.00;0.00;;;;;;;;;;5009105;28;20906;-83
2023/09/05 09:01:32;;;;;;;0.00;0.00;;;;;;;;;;5029698;28;20402;-82
2023/09/05 09:03:59;;;;;;;0.00;0.00;;;;;;;;;;5028688;28;20443;-82
2023/09/05 09:06:24;;;;;;;0.00;0.00;;;;;;;;;;5030739;28;20473;-83
2023/09/05 09:08:51;;;;;;;0.00;0.00;;;;;;;;;;5030681;28;20521;-85
2023/09/05 09:11:18;;;;;;;0.00;0.00;;;;;;;;;;5027285;28;20898;-81
2023/09/05 09:13:46;;;;;;;0.00;0.00;;;;;;;;;;5013039;28;20430;-83
2023/09/05 09:16:15;;;;;;;0.00;0.00;;;;;;;;;;5020678;28;20483;-87
2023/09/05 09:18:41;;;;;;;0.00;0.00;;;;;;;;;;5029592;28;20389;-85
2023/09/05 09:21:06;;;;;;;0.00;0.00;;;;;;;;;;5009586;28;20435;-84
2023/09/05 09:23:33;;;;;;;0.00;0.00;;;;;;;;;;5012867;28;20832;-83
2023/09/05 09:25:59;;;;;;;0.00;0.00;;;;;;;;;;5009992;28;20391;-79
2023/09/05 09:28:28;;;;;;;0.00;0.00;;;;;;;;;;5022880;28;20963;-81
2023/09/05 09:30:58;;;;;;;0.00;0.00;;;;;;;;;;5012531;28;20478;-86
2023/09/05 09:33:23;;;;;;;0.00;0.00;;;;;;;;;;5030980;28;20482;-83
2023/09/05 09:36:01;;;;;;;0.00;0.00;;;;;;;;;;5029978;28;21013;-84
2023/09/05 09:38:26;;;;;;;0.00;0.00;;;;;;;;;;5031033;28;20431;-83
2023/09/05 09:40:51;;;;;;;0.00;0.00;;;;;;;;;;5028969;28;21007;-82
2023/09/05 09:43:17;;;;;;;0.00;0.00;;;;;;;;;;5011439;28;20968;-82
2023/09/05 09:45:42;;;;;;;0.00;0.00;;;;;;;;;;5010214;28;20394;-82
2023/09/05 09:48:09;;;;;;;0.00;0.00;;;;;;;;;;5029472;28;20450;-82
2023/09/05 09:50:36;;;;;;;0.00;0.00;;;;;;;;;;5011507;28;20402;-84
2023/09/05 09:53:01;;;;;;;0.00;0.00;;;;;;;;;;5014808;28;20430;-82
2023/09/05 09:55:30;;;;;;;0.00;0.00;;;;;;;;;;5009350;28;20420;-83
2023/09/05 09:58:01;;;;;;;0.00;0.00;;;;;;;;;;5015727;28;20464;-83
2023/09/05 10:00:27;;;;;;;0.00;0.00;;;;;;;;;;5011603;28;20482;-83
2023/09/05 10:02:53;;;;;;;0.00;0.00;;;;;;;;;;5009845;28;20493;-82
2023/09/05 10:05:21;;;;;;;0.00;0.00;;;;;;;;;;5008452;28;20410;-84
2023/09/05 10:07:47;;;;;;;0.00;0.00;;;;;;;;;;5009882;28;20403;-83
2023/09/05 10:10:15;;;;;;;0.00;0.00;;;;;;;;;;5016052;28;20769;-83
2023/09/05 10:12:43;;;;;;;0.00;0.00;;;;;;;;;;5026705;28;20903;-84
2023/09/05 10:15:10;;;;;;;0.00;0.00;;;;;;;;;;5002008;28;20402;-82
2023/09/05 10:17:37;;;;;;;0.00;0.00;;;;;;;;;;5009117;28;20420;-83
2023/09/05 10:20:04;;;;;;;0.00;0.00;;;;;;;;;;5027781;28;20515;-83
2023/09/05 10:22:32;;;;;;;0.00;0.00;;;;;;;;;;5024342;28;20381;-83
2023/09/05 10:24:58;;;;;;;0.00;0.00;;;;;;;;;;5021068;28;20776;-84
2023/09/05 10:27:23;;;;;;;0.00;0.00;;;;;;;;;;5026790;28;20407;-83
2023/09/05 10:29:49;;;;;;;0.00;0.00;;;;;;;;;;5009541;28;20439;-84
2023/09/05 10:32:18;;;;;;;0.00;0.00;;;;;;;;;;5008613;28;20411;-81
2023/09/05 10:34:57;;;;;;;0.00;0.00;;;;;;;;;;5021148;28;20525;-81
2023/09/05 10:37:26;;;;;;;0.00;0.00;;;;;;;;;;5011336;28;20429;-85
2023/09/05 10:39:55;;;;;;;0.00;0.00;;;;;;;;;;5004642;28;21210;-86
2023/09/05 10:42:27;;;;;;;0.00;0.00;;;;;;;;;;5009685;28;20398;-83
2023/09/05 10:44:52;;;;;;;0.00;0.00;;;;;;;;;;5025461;28;20415;-85
2023/09/05 10:47:28;;;;;;;0.00;0.00;;;;;;;;;;5018032;28;20489;-85
2023/09/05 10:50:00;;;;;;;0.00;0.00;;;;;;;;;;5013050;28;20409;-85
2023/09/05 10:52:32;;;;;;;0.00;0.00;;;;;;;;;;5022844;28;20399;-85
2023/09/05 10:54:59;;;;;;;0.00;0.00;;;;;;;;;;5018498;28;20831;-85
2023/09/05 10:57:34;;;;;;;0.00;0.00;;;;;;;;;;5008943;28;20407;-84
2023/09/05 11:00:11;;;;;;;0.00;0.00;;;;;;;;;;5025863;28;21031;-84
2023/09/05 11:02:40;;;;;;;0.00;0.00;;;;;;;;;;5023517;28;20510;-84
2023/09/05 11:05:27;;;;;;;0.00;0.00;;;;;;;;;;5016886;28;20407;-84
2023/09/05 11:07:54;;;;;;;0.00;0.00;;;;;;;;;;5002945;28;20422;-84
2023/09/05 11:10:30;;;;;;;0.00;0.00;;;;;;;;;;5021909;28;20406;-83
2023/09/05 11:13:08;;;;;;;0.00;0.00;;;;;;;;;;5001323;28;20971;-84
2023/09/05 11:15:36;;;;;;;0.00;0.00;;;;;;;;;;5020776;28;20410;-84
2023/09/05 11:18:05;;;;;;;0.00;0.00;;;;;;;;;;5004301;28;20886;-84
2023/09/05 11:20:44;;;;;;;0.00;0.00;;;;;;;;;;5007428;28;20418;-84
2023/09/05 11:23:29;;;;;;;0.00;0.00;;;;;;;;;;5008867;28;20406;-84
2023/09/05 11:25:55;;;;;;;0.00;0.00;;;;;;;;;;5008273;28;20407;-84
2023/09/05 11:28:25;;;;;;;0.00;0.00;;;;;;;;;;5009239;28;20502;-84
2023/09/05 11:30:57;;;;;;;0.00;0.00;;;;;;;;;;5025930;28;20446;-84
2023/09/05 11:33:24;;;;;;;0.00;0.00;;;;;;;;;;5006060;28;20417;-83
2023/09/05 11:35:50;;;;;;;0.00;0.00;;;;;;;;;;5021582;28;20494;-85
2023/09/05 11:38:15;;;;;;;0.00;0.00;;;;;;;;;;5033264;28;20824;-85
2023/09/05 11:40:50;;;;;;;0.00;0.00;;;;;;;;;;5007956;28;20410;-84
2023/09/05 11:43:16;;;;;;;0.00;0.00;;;;;;;43.13;nan;100843.69;5009749;28;20504;-84
2023/09/05 11:45:43;;;;;;;;;;;;;;;42.83;nan;100849.81;5010496;28;20140;-83
2023/09/05 11:48:14;;;;;;;;;;;;;;;41.95;nan;100861.19;5017555;28;19913;-83
2023/09/05 11:50:40;;;;;;;;;;;;;;;41.26;nan;100848.50;5026310;28;19936;-83
2023/09/05 11:53:05;;;;;;;;;;;;;;;39.89;nan;100835.84;5009166;28;20422;-83
2023/09/05 11:55:34;;;;;;;;;;;;;;;39.34;nan;100828.72;5025498;28;19936;-83
2023/09/05 11:58:00;;;;;;;;;;;;;;;38.71;nan;100830.63;5007297;28;19917;-85
2023/09/05 12:00:26;;;;;;;;;;;;;;;37.96;nan;100828.34;5023719;28;19913;-84
2023/09/05 12:02:57;;;;;;;;;;;;;;;37.18;nan;100820.97;5016170;28;20407;-85
2023/09/05 12:05:23;;;;;;;;;;;;;;;36.12;nan;100821.03;5009505;28;20024;-85
2023/09/05 12:07:49;;;;;;;;;;;;;;;35.81;nan;100810.78;5023310;28;20399;-85
2023/09/05 12:10:14;;;;;;;;;;;;;;;35.56;nan;100808.66;5024468;28;20049;-85
2023/09/05 12:12:50;;;;;;;;;;;;;;;35.28;nan;100806.06;5007325;28;19975;-85
2023/09/05 12:15:16;;;;;;;;;;;;;;;35.06;nan;100812.28;5011066;28;20420;-85
2023/09/05 12:17:45;;;;;;;;;;;;;;;34.77;nan;100799.72;5007689;28;19959;-85
2023/09/05 12:20:10;;;;;;;;;;;;;;;34.19;nan;100792.13;5007281;28;20377;-85
2023/09/05 12:22:35;;;;;;;;;;;;;;;33.89;nan;100797.03;5008304;28;19955;-85
2023/09/05 12:25:10;;;;;;;;;;;;;;;33.31;nan;100789.22;5024884;28;19927;-83
2023/09/05 12:27:35;;;;;;;;;;;;;;;33.05;nan;100789.59;5017224;28;19909;-84
2023/09/05 12:30:00;;;;;;;;;;;;;;;32.75;nan;100780.69;5009629;28;19913;-85
2023/09/05 12:32:26;;;;;;;;;;;;;;;32.65;nan;100774.53;5027429;28;19921;-84
2023/09/05 12:34:52;;;;;;;;;;;;;;;32.33;nan;100768.59;5020327;28;20370;-84
2023/09/05 12:37:17;;;;;;;;;;;;;;;32.32;nan;100768.88;5051253;28;19962;-84
2023/09/05 12:39:42;;;;;;;;;;;;;;;32.28;nan;100763.19;5014581;28;19917;-84
2023/09/05 12:42:09;;;;;;;;;;;;;;;32.16;nan;100773.72;5028344;28;20210;-85
2023/09/05 12:44:35;;;;;;;0.00;0.00;;;;;;;;;;5025625;28;20850;-84
2023/09/05 12:47:00;;;;;;;0.00;0.00;;;;;;;31.89;nan;100750.44;5005000;28;20430;-84
2023/09/05 12:49:25;;;;;;;;;;;;;;;31.72;nan;100758.25;5005758;28;20041;-84
2023/09/05 12:51:53;;;;;;;;;;;;;;;31.68;nan;100740.81;5010746;28;19913;-84
2023/09/05 12:54:18;;;;;;;0.00;0.00;;;;;;;31.61;nan;100746.63;5006252;28;19917;-84
2023/09/05 12:56:44;;;;;;;;;;;;;;;31.51;nan;100750.25;5032022;28;20072;-83
2023/09/05 12:59:10;;;;;;;0.00;0.00;;;;;;;;;;5030384;28;20032;-84
2023/09/05 13:01:35;;;;;;;0.00;0.00;;;;;;;;;;5041365;28;20406;-84
2023/09/05 13:04:02;;;;;;;0.00;0.00;;;;;;;;;;5013348;28;21107;-83
2023/09/05 13:06:28;;;;;;;0.00;0.00;;;;;;;;;;5030257;28;20406;-83
2023/09/05 13:08:53;;;;;;;0.00;0.00;;;;;;;;;;5020966;28;20402;-84
2023/09/05 13:11:18;;;;;;;0.00;0.00;;;;;;;;;;5022275;28;20440;-83
2023/09/05 13:13:43;;;;;;;0.00;0.00;;;;;;;;;;5029830;28;20418;-83
2023/09/05 13:16:09;;;;;;;0.00;0.00;;;;;;;;;;5014587;28;20823;-84
2023/09/05 13:18:34;;;;;;;0.00;0.00;;;;;;;;;;5011623;28;20412;-83
2023/09/05 13:20:59;;;;;;;0.00;0.00;;;;;;;;;;5027668;28;20395;-83
2023/09/05 13:23:24;;;;;;;0.00;0.00;;;;;;;;;;5011365;28;20410;-83
2023/09/05 13:25:50;;;;;;;0.00;0.00;;;;;;;;;;5029943;28;20398;-84
2023/09/05 13:28:15;;;;;;;0.00;0.00;;;;;;;;;;5014009;28;20815;-84